Time;durP1;ratioP1;P1;durP2;ratioP2;P2;SDS_P1;SDS_P2;PMS_P1;PMS_P2;Temp;Humidity;BMP_temperature;BMP_pressure;BME280_temperature;BME280_humidity;BME280_pressure;Samples;Min_cycle;Max_cycle;Signal;HPM_P1;HPM_P2
2023/02/12 00:00:19;;;;;;;50.53;29.80;;;9.40;99.90;;;;;;4209622;28;20044;-67
2023/02/12 00:02:20;;;;;;;53.58;32.28;;;9.30;99.90;;;;;;4210718;28;20029;-66
2023/02/12 00:04:21;;;;;;;52.78;32.50;;;9.30;99.90;;;;;;4211205;28;20092;-67
2023/02/12 00:06:22;;;;;;;50.28;31.52;;;9.30;99.90;;;;;;4210319;28;20167;-67
2023/02/12 00:08:23;;;;;;;52.30;31.30;;;9.30;99.90;;;;;;4211322;28;20039;-67
2023/02/12 00:10:24;;;;;;;52.28;31.88;;;9.30;99.90;;;;;;4205240;28;20107;-67
2023/02/12 00:12:24;;;;;;;51.22;29.85;;;9.30;99.90;;;;;;4210357;28;20040;-67
2023/02/12 00:14:25;;;;;;;50.58;30.52;;;9.30;99.90;;;;;;4210979;28;20036;-66
2023/02/12 00:16:27;;;;;;;48.95;29.55;;;9.40;99.90;;;;;;4210197;28;20036;-67
2023/02/12 00:18:28;;;;;;;51.33;30.95;;;9.40;99.90;;;;;;4211502;28;20067;-67
2023/02/12 00:20:28;;;;;;;51.50;30.33;;;9.40;99.90;;;;;;4209417;28;20104;-67
2023/02/12 00:22:29;;;;;;;47.90;28.27;;;9.40;99.90;;;;;;4210050;28;20059;-67
2023/02/12 00:24:30;;;;;;;46.03;26.88;;;9.40;99.90;;;;;;4207756;28;20032;-67
2023/02/12 00:26:30;;;;;;;46.03;28.42;;;9.40;99.90;;;;;;4210328;28;20491;-67
2023/02/12 00:28:31;;;;;;;43.17;27.15;;;9.40;99.90;;;;;;4209975;28;20025;-66
2023/02/12 00:30:31;;;;;;;44.60;28.17;;;9.40;99.90;;;;;;4208864;28;20403;-67
2023/02/12 00:32:32;;;;;;;47.05;28.80;;;9.40;99.90;;;;;;4210161;28;20105;-67
2023/02/12 00:34:32;;;;;;;46.92;29.50;;;9.50;99.90;;;;;;4210332;28;20032;-67
2023/02/12 00:36:33;;;;;;;51.85;31.38;;;9.40;99.90;;;;;;4210007;28;20412;-67
2023/02/12 00:38:34;;;;;;;46.70;28.88;;;9.40;99.90;;;;;;4210948;28;20044;-67
2023/02/12 00:40:34;;;;;;;45.88;28.80;;;9.40;99.90;;;;;;4209423;28;20031;-67
2023/02/12 00:42:35;;;;;;;46.95;28.08;;;9.40;99.90;;;;;;4209951;28;20032;-66
2023/02/12 00:44:36;;;;;;;47.70;28.58;;;9.40;99.90;;;;;;4210658;28;20394;-67
2023/02/12 00:46:36;;;;;;;49.88;30.20;;;9.40;99.90;;;;;;4209669;28;20052;-66
2023/02/12 00:48:37;;;;;;;48.60;29.35;;;9.40;99.90;;;;;;4210800;28;20071;-66
2023/02/12 00:50:39;;;;;;;43.58;27.98;;;9.40;99.90;;;;;;4209835;28;20046;-66
2023/02/12 00:52:40;;;;;;;47.90;29.90;;;9.30;99.90;;;;;;4210429;28;20375;-67
2023/02/12 00:54:41;;;;;;;49.13;29.48;;;9.40;99.90;;;;;;4210359;28;20024;-66
2023/02/12 00:56:41;;;;;;;48.53;30.20;;;9.40;99.90;;;;;;4209467;28;20500;-66
2023/02/12 00:58:42;;;;;;;53.47;30.73;;;9.30;99.90;;;;;;4210806;28;20050;-66
2023/02/12 01:00:43;;;;;;;47.17;29.13;;;9.30;99.90;;;;;;4209216;28;20036;-66
2023/02/12 01:02:43;;;;;;;49.10;28.85;;;9.30;99.90;;;;;;4209377;28;20028;-66
2023/02/12 01:04:44;;;;;;;56.10;29.73;;;9.30;99.90;;;;;;4210601;28;20387;-66
2023/02/12 01:06:45;;;;;;;51.90;29.55;;;9.30;99.90;;;;;;4209577;28;20036;-67
2023/02/12 01:08:48;;;;;;;48.00;29.05;;;9.30;99.90;;;;;;4210569;28;20465;-66
2023/02/12 01:10:58;;;;;;;50.60;30.35;;;9.20;99.90;;;;;;4208921;28;20040;-66
2023/02/12 01:12:59;;;;;;;50.95;29.83;;;9.20;99.90;;;;;;4209642;28;20043;-66
2023/02/12 01:15:00;;;;;;;51.60;29.73;;;9.20;99.90;;;;;;4210843;28;20507;-66
2023/02/12 01:17:00;;;;;;;48.30;30.23;;;9.20;99.90;;;;;;4209231;28;20111;-66
2023/02/12 01:19:03;;;;;;;44.42;27.60;;;9.20;99.90;;;;;;4210546;28;20040;-66
2023/02/12 01:21:20;;;;;;;46.92;29.65;;;9.20;99.90;;;;;;4208604;28;20509;-67
2023/02/12 01:23:20;;;;;;;45.58;28.00;;;9.20;99.90;;;;;;4208755;28;20127;-66
2023/02/12 01:25:21;;;;;;;48.47;28.38;;;9.20;99.90;;;;;;4209810;28;20506;-66
2023/02/12 01:27:22;;;;;;;49.40;29.88;;;9.20;99.90;;;;;;4209566;28;20074;-66
2023/02/12 01:29:22;;;;;;;54.28;31.35;;;9.30;99.90;;;;;;4209771;28;20119;-66
2023/02/12 01:31:25;;;;;;;45.35;29.05;;;9.20;99.90;;;;;;4207724;28;20967;-66
2023/02/12 01:33:25;;;;;;;;;;;9.20;99.90;;;;;;4206018;28;20043;-66
2023/02/12 01:35:26;;;;;;;45.45;26.90;;;9.20;99.90;;;;;;4209261;28;19951;-66
2023/02/12 01:37:26;;;;;;;47.60;29.27;;;9.20;99.90;;;;;;4210085;28;20028;-66
2023/02/12 01:39:27;;;;;;;43.95;26.90;;;9.20;99.90;;;;;;4209413;28;20394;-66
2023/02/12 01:41:31;;;;;;;43.72;27.13;;;9.20;99.90;;;;;;4207469;28;20043;-66
2023/02/12 01:43:33;;;;;;;41.30;25.35;;;9.20;99.90;;;;;;4209502;28;20028;-66
2023/02/12 01:45:39;;;;;;;;;;;9.20;99.90;;;;;;4209548;28;20031;-66
2023/02/12 01:47:42;;;;;;;42.42;26.08;;;9.20;99.90;;;;;;4209765;28;20330;-66
2023/02/12 01:49:44;;;;;;;;;;;9.30;99.90;;;;;;4209786;28;20024;-66
2023/02/12 01:51:46;;;;;;;41.63;25.63;;;9.30;99.90;;;;;;4207388;28;20040;-66
2023/02/12 01:53:51;;;;;;;41.60;25.50;;;9.30;99.90;;;;;;4209703;28;20115;-66
2023/02/12 01:55:57;;;;;;;40.45;25.38;;;9.30;99.90;;;;;;4208892;28;20085;-66
2023/02/12 01:57:57;;;;;;;41.22;25.40;;;9.30;99.90;;;;;;4208532;28;20077;-66
2023/02/12 02:00:04;;;;;;;42.25;25.95;;;9.40;99.90;;;;;;4208247;28;20027;-66
2023/02/12 02:02:05;;;;;;;40.92;25.17;;;9.30;99.90;;;;;;4206587;28;20222;-66
2023/02/12 02:04:12;;;;;;;40.58;25.92;;;9.40;99.90;;;;;;4209459;28;20077;-66
2023/02/12 02:06:20;;;;;;;43.30;26.75;;;9.40;99.90;;;;;;4208920;28;20028;-66
2023/02/12 02:08:22;;;;;;;43.65;26.90;;;9.40;99.90;;;;;;4208987;28;20098;-66
2023/02/12 02:10:22;;;;;;;41.55;25.75;;;9.40;99.90;;;;;;4207886;28;20137;-67
2023/02/12 02:14:44;;;;;;;43.53;26.38;;;9.40;99.90;;;;;;4205987;28;20032;-66
2023/02/12 02:17:18;;;;;;;41.20;25.45;;;9.40;99.90;;;;;;4205948;28;20054;-67
2023/02/12 02:19:50;;;;;;;39.30;25.05;;;9.40;99.90;;;;;;4207865;28;20032;-66
2023/02/12 02:22:27;;;;;;;43.63;25.40;;;9.50;99.90;;;;;;4188712;28;20033;-66
2023/02/12 02:24:57;;;;;;;40.50;25.80;;;9.40;99.90;;;;;;4208806;28;20547;-66
2023/02/12 02:27:19;;;;;;;43.60;26.08;;;9.50;99.90;;;;;;4207913;28;20040;-66
2023/02/12 02:29:24;;;;;;;46.80;27.25;;;9.50;99.90;;;;;;4208144;28;20042;-67
2023/02/12 02:31:29;;;;;;;43.08;26.92;;;9.40;99.90;;;;;;4207006;28;20123;-66
2023/02/12 02:33:48;;;;;;;41.20;25.88;;;9.50;99.90;;;;;;4208236;28;20036;-66
2023/02/12 02:36:06;;;;;;;41.25;25.85;;;9.50;99.90;;;;;;4207909;28;20039;-66
2023/02/12 02:38:22;;;;;;;41.17;24.92;;;9.50;99.90;;;;;;4208611;28;20086;-66
2023/02/12 02:40:26;;;;;;;42.72;26.70;;;9.50;99.90;;;;;;4206736;28;20153;-66
2023/02/12 02:42:29;;;;;;;42.38;26.35;;;9.50;99.90;;;;;;4204495;28;20085;-66
2023/02/12 02:44:42;;;;;;;43.17;27.17;;;9.50;99.90;;;;;;4209125;28;20032;-66
2023/02/12 02:46:46;;;;;;;44.85;27.35;;;9.50;99.90;;;;;;4208402;28;20028;-66
2023/02/12 02:48:51;;;;;;;45.47;26.92;;;9.50;99.90;;;;;;4209573;28;20077;-67
2023/02/12 02:50:57;;;;;;;41.35;25.85;;;9.50;99.90;;;;;;4208290;28;20364;-67
2023/02/12 02:53:23;;;;;;;44.78;27.15;;;9.50;99.90;;;;;;4209722;28;20115;-66
2023/02/12 02:55:28;;;;;;;41.70;25.50;;;9.40;99.90;;;;;;4204475;28;20403;-66
2023/02/12 02:57:35;;;;;;;43.47;26.30;;;9.40;99.90;;;;;;4208375;28;20032;-66
2023/02/12 02:59:42;;;;;;;41.22;26.10;;;9.40;99.90;;;;;;4208732;28;20127;-66
2023/02/12 03:01:47;;;;;;;41.05;26.10;;;9.40;99.90;;;;;;4188463;28;20025;-66
2023/02/12 03:03:53;;;;;;;44.53;26.30;;;9.40;99.90;;;;;;4208714;28;20047;-66
2023/02/12 03:06:01;;;;;;;46.83;27.15;;;9.30;99.90;;;;;;4203777;28;20042;-66
2023/02/12 03:08:22;;;;;;;45.33;27.25;;;9.30;99.90;;;;;;4205253;28;20037;-66
2023/02/12 03:10:30;;;;;;;43.70;27.20;;;9.20;99.90;;;;;;4206113;28;21268;-66
2023/02/12 03:12:37;;;;;;;38.63;24.58;;;9.20;99.90;;;;;;4207980;28;20036;-66
2023/02/12 03:14:43;;;;;;;42.13;26.55;;;9.20;99.90;;;;;;4205080;28;20043;-66
2023/02/12 03:16:54;;;;;;;40.63;25.73;;;9.20;99.90;;;;;;4206833;28;20032;-66
2023/02/12 03:19:04;;;;;;;38.38;24.63;;;9.30;99.90;;;;;;4206886;28;20039;-65
2023/02/12 03:21:13;;;;;;;38.92;23.45;;;9.20;99.90;;;;;;4206697;28;20028;-66
2023/02/12 03:23:24;;;;;;;42.75;26.08;;;9.20;99.90;;;;;;4208859;28;20039;-66
2023/02/12 03:25:32;;;;;;;41.63;26.00;;;9.20;99.90;;;;;;4206526;28;20483;-66
2023/02/12 03:27:37;;;;;;;42.03;25.38;;;9.20;99.90;;;;;;4205201;28;20024;-66
2023/02/12 03:29:38;;;;;;;42.97;25.63;;;9.20;99.90;;;;;;4208523;28;20032;-66
2023/02/12 03:32:09;;;;;;;42.85;26.88;;;9.20;99.90;;;;;;4206922;28;20490;-66
2023/02/12 03:34:15;;;;;;;40.58;25.30;;;9.20;99.90;;;;;;4208184;28;20030;-66
2023/02/12 03:36:26;;;;;;;38.88;25.40;;;9.20;99.90;;;;;;4207616;28;20068;-66
2023/02/12 03:38:34;;;;;;;42.15;25.80;;;9.20;99.90;;;;;;4209614;28;20024;-66
2023/02/12 03:41:03;;;;;;;39.38;25.33;;;9.20;99.90;;;;;;4203989;28;20117;-66
2023/02/12 03:43:18;;;;;;;42.45;25.75;;;9.20;99.90;;;;;;4207517;28;20111;-66
2023/02/12 03:45:43;;;;;;;40.15;24.55;;;9.20;99.90;;;;;;4207435;28;20376;-66
2023/02/12 03:47:54;;;;;;;43.85;25.52;;;9.20;99.90;;;;;;4207044;28;20108;-66
2023/02/12 03:50:13;;;;;;;40.92;25.67;;;9.20;99.90;;;;;;4204595;28;20744;-66
2023/02/12 03:52:14;;;;;;;38.75;25.08;;;9.10;99.90;;;;;;4204580;28;20032;-66
2023/02/12 03:54:18;;;;;;;40.58;25.23;;;9.20;99.90;;;;;;4205706;28;20032;-66
2023/02/12 03:56:24;;;;;;;40.03;24.38;;;9.10;99.90;;;;;;4207514;28;20215;-67
2023/02/12 03:58:28;;;;;;;41.22;24.48;;;9.10;99.90;;;;;;4208355;28;20352;-66
2023/02/12 04:00:29;;;;;;;36.05;23.23;;;9.20;99.90;;;;;;4207285;28;20036;-66
2023/02/12 04:02:30;;;;;;;40.03;24.98;;;9.10;99.90;;;;;;4208017;28;20447;-66
2023/02/12 04:04:31;;;;;;;37.80;25.08;;;9.20;99.90;;;;;;4210656;28;20024;-66
2023/02/12 04:06:32;;;;;;;35.70;23.08;;;9.20;99.90;;;;;;4210789;28;20035;-66
2023/02/12 04:08:32;;;;;;;36.60;22.60;;;9.20;99.90;;;;;;4210931;28;20117;-66
2023/02/12 04:10:51;;;;;;;40.10;24.13;;;9.20;99.90;;;;;;4209457;28;20039;-66
2023/02/12 04:13:15;;;;;;;40.63;24.88;;;9.20;99.90;;;;;;4212572;28;20036;-66
2023/02/12 04:15:22;;;;;;;39.17;25.25;;;9.20;99.90;;;;;;4216986;28;20080;-67
2023/02/12 04:17:35;;;;;;;38.22;24.65;;;9.20;99.90;;;;;;4212012;28;20119;-66
2023/02/12 04:19:54;;;;;;;37.63;24.20;;;9.20;99.90;;;;;;4189457;28;20143;-67
2023/02/12 04:22:24;;;;;;;38.53;23.67;;;9.20;99.90;;;;;;4208354;28;20036;-66
2023/02/12 04:24:31;;;;;;;36.33;22.10;;;9.30;99.90;;;;;;4209468;28;20032;-66
2023/02/12 04:26:45;;;;;;;36.78;23.75;;;9.20;99.90;;;;;;4207367;28;20536;-66
2023/02/12 04:28:57;;;;;;;35.13;23.05;;;9.20;99.90;;;;;;4210231;28;20482;-66
2023/02/12 04:31:22;;;;;;;40.05;24.48;;;9.30;99.90;;;;;;4207637;28;20028;-66
2023/02/12 04:33:27;;;;;;;39.83;24.95;;;9.30;99.90;;;;;;4210226;28;20062;-66
2023/02/12 04:35:56;;;;;;;35.00;23.40;;;9.20;99.90;;;;;;4210141;28;20032;-66
2023/02/12 04:38:07;;;;;;;36.97;23.17;;;9.20;99.90;;;;;;4209988;28;20028;-66
2023/02/12 04:40:12;;;;;;;40.28;24.42;;;9.20;99.90;;;;;;4209638;28;20040;-67
2023/02/12 04:42:13;;;;;;;38.45;23.63;;;9.20;99.90;;;;;;4210147;28;20035;-66
2023/02/12 04:44:25;;;;;;;38.53;24.58;;;9.20;99.90;;;;;;4211202;28;20032;-66
2023/02/12 04:46:25;;;;;;;40.45;24.95;;;9.20;99.90;;;;;;4210162;28;20028;-66
2023/02/12 04:48:26;;;;;;;40.33;23.67;;;9.20;99.90;;;;;;4210244;28;20094;-66
2023/02/12 04:50:39;;;;;;;36.75;23.55;;;9.20;99.90;;;;;;4205504;28;20996;-66
2023/02/12 04:52:39;;;;;;;35.65;23.85;;;9.20;99.90;;;;;;4210079;28;20028;-66
2023/02/12 04:54:40;;;;;;;36.42;23.92;;;9.20;99.90;;;;;;4210906;28;20027;-66
2023/02/12 04:56:40;;;;;;;35.90;23.02;;;9.20;99.90;;;;;;4209022;28;20101;-66
2023/02/12 04:58:41;;;;;;;39.00;24.15;;;9.20;99.90;;;;;;4209706;28;20035;-66
2023/02/12 05:00:42;;;;;;;38.55;23.33;;;9.30;99.90;;;;;;4208564;28;20115;-66
2023/02/12 05:02:43;;;;;;;34.53;22.67;;;9.30;99.90;;;;;;4205971;28;20072;-66
2023/02/12 05:04:44;;;;;;;36.60;22.92;;;9.20;99.90;;;;;;4208405;28;20534;-66
2023/02/12 05:06:45;;;;;;;38.10;24.10;;;9.20;99.90;;;;;;4206501;28;20128;-66
2023/02/12 05:08:45;;;;;;;39.90;24.08;;;9.30;99.90;;;;;;4205246;28;20043;-66
2023/02/12 05:10:46;;;;;;;39.25;23.73;;;9.30;99.90;;;;;;4204372;28;20028;-66
2023/02/12 05:12:46;;;;;;;37.60;24.63;;;9.30;99.90;;;;;;4202361;28;20600;-67
2023/02/12 05:14:47;;;;;;;35.53;22.77;;;9.30;99.90;;;;;;4205182;28;20062;-66
2023/02/12 05:16:48;;;;;;;37.15;23.15;;;9.30;99.90;;;;;;4186394;28;20094;-67
2023/02/12 05:18:48;;;;;;;36.78;23.98;;;9.30;99.90;;;;;;4209264;28;20391;-66
2023/02/12 05:20:57;;;;;;;38.10;23.77;;;9.30;99.90;;;;;;4205591;28;20125;-66
2023/02/12 05:22:57;;;;;;;37.17;23.52;;;9.30;99.90;;;;;;4206698;28;20034;-66
2023/02/12 05:24:58;;;;;;;39.20;24.33;;;9.30;99.90;;;;;;4206654;28;20107;-66
2023/02/12 05:26:59;;;;;;;39.67;25.13;;;9.30;99.90;;;;;;4208197;28;20048;-66
2023/02/12 05:28:59;;;;;;;36.05;24.23;;;9.30;99.90;;;;;;4208009;28;20036;-66
2023/02/12 05:31:02;;;;;;;39.58;24.42;;;9.30;99.90;;;;;;4206090;28;20107;-66
2023/02/12 05:33:02;;;;;;;35.22;23.00;;;9.30;99.90;;;;;;4207890;28;20068;-66
2023/02/12 05:35:03;;;;;;;35.95;22.85;;;9.30;99.90;;;;;;4207888;28;20084;-68
2023/02/12 05:37:04;;;;;;;37.25;23.08;;;9.30;99.90;;;;;;4209502;28;20036;-66
2023/02/12 05:39:06;;;;;;;37.05;23.30;;;9.30;99.90;;;;;;4202093;28;20094;-66
2023/02/12 05:41:09;;;;;;;34.63;22.40;;;9.30;99.90;;;;;;4188765;28;20082;-66
2023/02/12 05:43:10;;;;;;;33.30;22.25;;;9.30;99.90;;;;;;4208672;28;20625;-66
2023/02/12 05:45:10;;;;;;;37.17;22.60;;;9.30;99.90;;;;;;4207807;28;20119;-67
2023/02/12 05:47:11;;;;;;;35.35;23.42;;;9.30;99.90;;;;;;4207710;28;20032;-66
2023/02/12 05:49:11;;;;;;;35.75;22.45;;;9.30;99.90;;;;;;4208233;28;20123;-66
2023/02/12 05:51:17;;;;;;;39.03;24.50;;;9.30;99.90;;;;;;4205708;28;20053;-66
2023/02/12 05:53:17;;;;;;;40.70;25.58;;;9.20;99.90;;;;;;4206100;28;20455;-66
2023/02/12 05:55:18;;;;;;;35.95;23.50;;;9.20;99.90;;;;;;4208151;28;20028;-67
2023/02/12 05:57:18;;;;;;;41.50;23.10;;;9.20;99.90;;;;;;4204293;28;20044;-66
2023/02/12 05:59:21;;;;;;;38.35;24.70;;;9.20;99.90;;;;;;4207562;28;20398;-66
2023/02/12 06:01:27;;;;;;;38.40;24.02;;;9.20;99.90;;;;;;4203688;28;20544;-67
2023/02/12 06:03:27;;;;;;;37.10;23.23;;;9.20;99.90;;;;;;4207234;28;20044;-66
2023/02/12 06:05:28;;;;;;;36.97;23.75;;;9.20;99.90;;;;;;4207454;28;20387;-66
2023/02/12 06:07:28;;;;;;;31.05;21.35;;;9.20;99.90;;;;;;4208792;28;20131;-66
2023/02/12 06:09:29;;;;;;;35.45;22.35;;;9.20;99.90;;;;;;4206200;28;20101;-66
2023/02/12 06:11:30;;;;;;;37.08;21.98;;;9.20;99.90;;;;;;4204142;28;20153;-66
2023/02/12 06:13:31;;;;;;;32.42;21.17;;;9.20;99.90;;;;;;4207840;28;20036;-66
2023/02/12 06:15:31;;;;;;;35.75;22.77;;;9.20;99.90;;;;;;4206074;28;20107;-66
2023/02/12 06:17:33;;;;;;;36.25;21.95;;;9.10;99.90;;;;;;4207540;28;20024;-66
2023/02/12 06:19:35;;;;;;;35.50;21.75;;;9.20;99.90;;;;;;4205960;28;20065;-66
2023/02/12 06:21:35;;;;;;;33.95;21.73;;;9.20;99.90;;;;;;4206231;28;20036;-66
2023/02/12 06:23:36;;;;;;;30.98;20.77;;;9.20;99.90;;;;;;4203874;28;20032;-66
2023/02/12 06:25:36;;;;;;;31.63;20.95;;;9.10;99.90;;;;;;4204511;28;20040;-66
2023/02/12 06:27:37;;;;;;;33.47;20.92;;;9.20;99.90;;;;;;4207083;28;20064;-66
2023/02/12 06:29:38;;;;;;;33.67;21.60;;;9.20;99.90;;;;;;4207164;28;20036;-66
2023/02/12 06:31:38;;;;;;;36.15;21.90;;;9.10;99.90;;;;;;4202497;28;20039;-66
2023/02/12 06:33:39;;;;;;;33.60;21.83;;;9.20;99.90;;;;;;4207694;28;21308;-66
2023/02/12 06:35:39;;;;;;;35.35;22.90;;;9.20;99.90;;;;;;4202576;28;20043;-66
2023/02/12 06:37:40;;;;;;;33.33;22.17;;;9.20;99.90;;;;;;4212698;28;20479;-66
2023/02/12 06:39:40;;;;;;;34.15;22.52;;;9.20;99.90;;;;;;4205429;28;20063;-66
2023/02/12 06:41:42;;;;;;;36.22;22.25;;;9.20;99.90;;;;;;4207091;28;20487;-66
2023/02/12 06:43:43;;;;;;;32.97;21.00;;;9.20;99.90;;;;;;4192071;28;20506;-66
2023/02/12 06:45:44;;;;;;;33.42;21.30;;;9.20;99.90;;;;;;4204300;28;20153;-66
2023/02/12 06:47:44;;;;;;;36.03;22.50;;;9.20;99.90;;;;;;4208218;28;20491;-66
2023/02/12 06:49:45;;;;;;;36.78;22.98;;;9.20;99.90;;;;;;4205609;28;20081;-66
2023/02/12 06:51:45;;;;;;;35.88;23.33;;;9.20;99.90;;;;;;4205530;28;20039;-66
2023/02/12 06:53:46;;;;;;;35.40;22.45;;;9.20;99.90;;;;;;4207007;28;20051;-67
2023/02/12 06:55:47;;;;;;;33.60;21.27;;;9.20;99.90;;;;;;4210800;28;20032;-66
2023/02/12 06:57:48;;;;;;;37.20;22.25;;;9.20;99.90;;;;;;4209019;28;20485;-67
2023/02/12 06:59:48;;;;;;;33.25;22.77;;;9.20;99.90;;;;;;4210190;28;20040;-67
2023/02/12 07:01:49;;;;;;;35.75;22.80;;;9.20;99.90;;;;;;4202116;28;20036;-67
2023/02/12 07:03:56;;;;;;;38.22;23.88;;;9.20;99.90;;;;;;4204716;28;20755;-67
2023/02/12 07:05:56;;;;;;;37.35;23.15;;;9.20;99.90;;;;;;4208434;28;20406;-67
2023/02/12 07:07:57;;;;;;;38.67;24.85;;;9.20;99.90;;;;;;4206139;28;20039;-67
2023/02/12 07:09:58;;;;;;;37.88;24.27;;;9.20;99.90;;;;;;4211472;28;20035;-67
2023/02/12 07:11:59;;;;;;;39.13;24.85;;;9.20;99.90;;;;;;4208254;28;20028;-67
2023/02/12 07:14:00;;;;;;;38.83;24.70;;;9.20;99.90;;;;;;4212524;28;20043;-67
2023/02/12 07:16:05;;;;;;;42.53;26.27;;;9.20;99.90;;;;;;4208451;28;20032;-67
2023/02/12 07:18:06;;;;;;;44.75;26.75;;;9.10;99.90;;;;;;4209009;28;20406;-67
2023/02/12 07:20:07;;;;;;;44.17;27.15;;;9.10;99.90;;;;;;4206175;28;20059;-67
2023/02/12 07:22:08;;;;;;;40.15;23.95;;;9.10;99.90;;;;;;4211136;28;20032;-67
2023/02/12 07:24:13;;;;;;;40.55;24.05;;;9.10;99.90;;;;;;4209860;28;20029;-67
2023/02/12 07:26:14;;;;;;;38.90;24.15;;;9.10;99.90;;;;;;4209854;28;20031;-66
2023/02/12 07:28:15;;;;;;;36.70;22.90;;;9.10;99.90;;;;;;4209311;28;20479;-67
2023/02/12 07:30:15;;;;;;;33.83;23.42;;;9.10;99.90;;;;;;4209716;28;20028;-66
2023/02/12 07:32:16;;;;;;;40.08;25.67;;;9.10;99.90;;;;;;4207317;28;20027;-67
2023/02/12 07:34:17;;;;;;;38.28;23.77;;;9.10;99.90;;;;;;4208079;28;20028;-67
2023/02/12 07:36:18;;;;;;;37.83;24.23;;;9.10;99.90;;;;;;4205610;28;20024;-66
2023/02/12 07:38:19;;;;;;;42.85;25.33;;;9.10;99.90;;;;;;4190272;28;20036;-67
2023/02/12 07:40:19;;;;;;;40.08;25.17;;;9.10;99.90;;;;;;4210105;28;20032;-67
2023/02/12 07:42:20;;;;;;;39.65;23.67;;;9.10;99.90;;;;;;4209571;28;20032;-67
2023/02/12 07:44:20;;;;;;;42.90;26.90;;;9.20;99.90;;;;;;4208279;28;20056;-67
2023/02/12 07:46:30;;;;;;;37.85;23.75;;;9.10;99.90;;;;;;4204864;28;20043;-67
2023/02/12 07:48:31;;;;;;;39.92;25.00;;;9.20;99.90;;;;;;4208605;28;20028;-67
2023/02/12 07:50:31;;;;;;;39.40;25.35;;;9.20;99.90;;;;;;4208084;28;20050;-67
2023/02/12 07:52:32;;;;;;;38.83;25.20;;;9.20;99.90;;;;;;4210732;28;20028;-67
2023/02/12 07:54:33;;;;;;;35.50;22.65;;;9.20;99.90;;;;;;4193362;28;20155;-67
2023/02/12 07:56:36;;;;;;;35.05;22.80;;;9.20;99.90;;;;;;4210969;28;20387;-67
2023/02/12 07:58:38;;;;;;;33.72;21.70;;;9.20;99.90;;;;;;4210353;28;20028;-67
2023/02/12 08:00:39;;;;;;;42.07;26.83;;;9.20;99.90;;;;;;4209810;28;20471;-67
2023/02/12 08:02:39;;;;;;;41.92;26.27;;;9.10;99.90;;;;;;4211243;28;20281;-67
2023/02/12 08:04:40;;;;;;;42.53;26.00;;;9.10;99.90;;;;;;4209192;28;20040;-67
2023/02/12 08:06:44;;;;;;;38.08;24.77;;;9.10;99.90;;;;;;4209950;28;20036;-67
2023/02/12 08:08:45;;;;;;;39.65;24.38;;;9.10;99.90;;;;;;4209975;28;20043;-66
2023/02/12 08:10:46;;;;;;;40.58;24.70;;;9.10;99.90;;;;;;4207913;28;20482;-67
2023/02/12 08:12:46;;;;;;;39.47;24.85;;;9.10;99.90;;;;;;4210559;28;20197;-67
2023/02/12 08:14:47;;;;;;;38.28;23.75;;;9.10;99.90;;;;;;4210617;28;20039;-67
2023/02/12 08:16:49;;;;;;;40.80;25.15;;;9.20;99.90;;;;;;4209558;28;20039;-67
2023/02/12 08:18:50;;;;;;;43.55;26.50;;;9.10;99.90;;;;;;4208591;28;20020;-67
2023/02/12 08:20:50;;;;;;;43.50;25.60;;;9.20;99.90;;;;;;4205866;28;20063;-67
2023/02/12 08:22:51;;;;;;;45.28;27.70;;;9.20;99.90;;;;;;4208898;28;20044;-67
2023/02/12 08:24:51;;;;;;;46.67;28.70;;;9.20;99.90;;;;;;4207998;28;20063;-67
2023/02/12 08:26:52;;;;;;;41.78;25.60;;;9.20;99.90;;;;;;4209885;28;20398;-67
2023/02/12 08:29:02;;;;;;;41.60;25.80;;;9.20;99.90;;;;;;4210525;28;20048;-67
2023/02/12 08:31:06;;;;;;;39.60;24.77;;;9.20;99.90;;;;;;4205782;28;20049;-67
2023/02/12 08:33:07;;;;;;;39.35;24.27;;;9.20;99.90;;;;;;4209372;28;20040;-67
2023/02/12 08:35:07;;;;;;;44.42;26.85;;;9.20;99.90;;;;;;4210027;28;20032;-67
2023/02/12 08:37:08;;;;;;;42.78;26.65;;;9.20;99.90;;;;;;4204696;28;20032;-67
2023/02/12 08:39:12;;;;;;;39.83;25.33;;;9.20;99.90;;;;;;4207262;28;20046;-68
2023/02/12 08:41:19;;;;;;;45.05;28.13;;;9.30;99.90;;;;;;4203242;28;20031;-67
2023/02/12 08:43:19;;;;;;;46.53;28.75;;;9.20;99.90;;;;;;4206049;28;20048;-67
2023/02/12 08:45:20;;;;;;;41.38;26.25;;;9.30;99.90;;;;;;4208525;28;20040;-67
2023/02/12 08:47:20;;;;;;;46.80;27.98;;;9.30;99.90;;;;;;4207352;28;20562;-67
2023/02/12 08:49:27;;;;;;;45.55;28.63;;;9.30;99.90;;;;;;4205461;28;20036;-67
2023/02/12 08:51:31;;;;;;;46.65;27.75;;;9.30;99.90;;;;;;4198789;28;20122;-67
2023/02/12 08:53:31;;;;;;;48.42;29.10;;;9.20;99.90;;;;;;4207294;28;20080;-67
2023/02/12 08:55:32;;;;;;;46.70;28.70;;;9.20;99.90;;;;;;4202630;28;20047;-67
2023/02/12 08:57:34;;;;;;;41.33;25.50;;;9.30;99.90;;;;;;4207879;28;20560;-67
2023/02/12 08:59:34;;;;;;;41.08;26.65;;;9.30;99.90;;;;;;4185090;28;20078;-67
2023/02/12 09:01:37;;;;;;;41.53;26.50;;;9.30;99.90;;;;;;4205640;28;20386;-67
2023/02/12 09:03:37;;;;;;;39.85;24.80;;;9.30;99.90;;;;;;4205754;28;20024;-67
2023/02/12 09:05:40;;;;;;;44.25;26.65;;;9.30;99.90;;;;;;4206935;28;20432;-67
2023/02/12 09:07:40;;;;;;;42.08;26.10;;;9.40;99.90;;;;;;4203535;28;20414;-67
2023/02/12 09:09:41;;;;;;;42.38;26.88;;;9.40;99.90;;;;;;4202382;28;20048;-67
2023/02/12 09:11:41;;;;;;;41.58;26.25;;;9.40;99.90;;;;;;4201700;28;20080;-67
2023/02/12 09:13:44;;;;;;;41.75;26.20;;;9.40;99.90;;;;;;4185970;28;20071;-67
2023/02/12 09:15:45;;;;;;;38.75;25.10;;;9.50;99.90;;;;;;4202928;28;20039;-67
2023/02/12 09:17:45;;;;;;;38.05;24.65;;;9.50;99.90;;;;;;4207256;28;20081;-67
2023/02/12 09:19:46;;;;;;;41.30;26.33;;;9.50;99.90;;;;;;4202864;28;20103;-67
2023/02/12 09:21:51;;;;;;;40.60;25.48;;;9.50;99.90;;;;;;4203580;28;20032;-66
2023/02/12 09:23:51;;;;;;;42.60;26.52;;;9.50;99.90;;;;;;4185030;28;20043;-67
2023/02/12 09:25:52;;;;;;;41.03;25.98;;;9.50;99.90;;;;;;4201274;28;20130;-67
2023/02/12 09:27:54;;;;;;;40.13;25.55;;;9.50;99.90;;;;;;4202791;28;20461;-67
2023/02/12 09:29:55;;;;;;;42.15;25.75;;;9.50;99.90;;;;;;4204666;28;20048;-68
2023/02/12 09:31:56;;;;;;;39.55;25.15;;;9.50;99.90;;;;;;4202291;28;20031;-67
2023/02/12 09:34:02;;;;;;;42.30;27.05;;;9.60;99.90;;;;;;4189739;28;20033;-67
2023/02/12 09:36:05;;;;;;;38.60;25.05;;;9.60;99.90;;;;;;4202733;28;20562;-67
2023/02/12 09:38:07;;;;;;;41.33;25.92;;;9.60;99.90;;;;;;4202391;28;20386;-67
2023/02/12 09:40:21;;;;;;;43.58;26.67;;;9.60;99.90;;;;;;4202082;28;20393;-67
2023/02/12 09:42:24;;;;;;;37.05;24.38;;;9.70;99.90;;;;;;4204857;28;20418;-67
2023/02/12 09:44:28;;;;;;;37.42;23.25;;;9.70;99.90;;;;;;4202572;28;20565;-67
2023/02/12 09:46:30;;;;;;;36.65;23.80;;;9.70;99.90;;;;;;4201776;28;22349;-67
2023/02/12 09:49:02;;;;;;;39.05;23.95;;;9.70;99.90;;;;;;4204138;28;20040;-67
2023/02/12 09:51:06;;;;;;;37.25;23.98;;;9.80;99.90;;;;;;4202883;28;20032;-67
2023/02/12 09:53:13;;;;;;;42.35;26.35;;;9.80;99.90;;;;;;4208318;28;20024;-66
2023/02/12 09:55:15;;;;;;;41.10;25.52;;;9.80;99.90;;;;;;4206950;28;20399;-67
2023/02/12 09:57:36;;;;;;;41.10;25.52;;;9.80;99.90;;;;;;4205165;28;20487;-67
2023/02/12 09:59:46;;;;;;;39.80;25.65;;;9.70;99.90;;;;;;4201521;28;20044;-67
2023/02/12 10:01:47;;;;;;;44.90;27.65;;;9.70;99.90;;;;;;4206751;28;20078;-67
2023/02/12 10:03:50;;;;;;;41.75;26.00;;;9.80;99.90;;;;;;4208140;28;20391;-67
2023/02/12 10:06:01;;;;;;;44.92;27.42;;;9.80;99.90;;;;;;4209639;28;20115;-67
2023/02/12 10:08:46;;;;;;;46.85;27.60;;;9.70;99.90;;;;;;4206246;28;20502;-67
2023/02/12 10:11:15;;;;;;;42.50;26.30;;;9.80;99.90;;;;;;4138441;28;20022;-67
2023/02/12 10:13:39;;;;;;;39.95;25.77;;;9.80;99.90;;;;;;4195787;28;20077;-66
2023/02/12 10:15:48;;;;;;;35.97;23.80;;;9.80;99.90;;;;;;4204101;28;20028;-67
2023/02/12 10:17:54;;;;;;;40.35;24.23;;;9.80;99.90;;;;;;4207977;28;20552;-67
2023/02/12 10:20:13;;;;;;;36.58;23.08;;;9.80;99.90;;;;;;4209370;28;20402;-67
2023/02/12 10:22:29;;;;;;;39.88;25.50;;;9.80;99.90;;;;;;4209019;28;20032;-67
2023/02/12 10:25:02;;;;;;;37.92;25.20;;;9.80;99.90;;;;;;4206921;28;20057;-67
2023/02/12 10:27:13;;;;;;;42.45;26.50;;;9.70;99.90;;;;;;4190447;28;20032;-66
2023/02/12 10:29:27;;;;;;;36.85;24.92;;;9.80;99.90;;;;;;4206213;28;20064;-67
2023/02/12 10:31:36;;;;;;;35.22;22.55;;;9.80;99.90;;;;;;4204700;28;20047;-67
2023/02/12 10:33:42;;;;;;;35.72;23.38;;;9.90;99.90;;;;;;4207523;28;20032;-67
2023/02/12 10:35:49;;;;;;;36.40;23.15;;;9.90;99.90;;;;;;4207091;28;20028;-67
2023/02/12 10:38:16;;;;;;;35.10;22.10;;;9.90;99.90;;;;;;4204949;28;20070;-67
2023/02/12 10:40:25;;;;;;;37.00;24.55;;;9.90;99.90;;;;;;4202951;28;20395;-67
2023/02/12 10:42:42;;;;;;;35.90;23.65;;;9.90;99.90;;;;;;4206004;28;20343;-67
2023/02/12 10:44:43;;;;;;;38.15;24.05;;;9.90;99.90;;;;;;4204653;28;20036;-67